createdAt,value
2018-03-25T00:00:18.466Z,1.40
2018-03-25T00:02:46.483Z,1.50
2018-03-25T00:05:14.817Z,1.50
2018-03-25T00:07:42.514Z,1.60
2018-03-25T00:13:21.895Z,1.60
2018-03-25T00:18:54.125Z,1.40
2018-03-25T00:24:31.043Z,1.20
2018-03-25T00:30:01.113Z,1.30
2018-03-25T00:32:28.793Z,1.30
2018-03-25T00:42:40.771Z,1.20
2018-03-25T00:45:09.131Z,1.10
2018-03-25T00:47:37.519Z,1.00
2018-03-25T00:50:18.235Z,0.90
2018-03-25T00:52:49.356Z,0.90
2018-03-25T00:55:17.001Z,0.90
2018-03-25T00:57:45.083Z,0.90
2018-03-25T01:00:13.030Z,1.00
2018-03-25T01:02:41.099Z,1.00
2018-03-25T01:05:09.784Z,1.10
2018-03-25T01:10:46.743Z,1.00
2018-03-25T01:13:14.288Z,1.10
2018-03-25T01:15:53.704Z,1.00
2018-03-25T01:18:47.366Z,1.00
2018-03-25T01:21:15.879Z,0.90
2018-03-25T01:23:43.858Z,0.90
2018-03-25T01:26:18.657Z,0.80
2018-03-25T01:28:46.800Z,0.90
2018-03-25T01:31:14.394Z,0.80
2018-03-25T01:33:41.962Z,0.60
2018-03-25T01:36:09.871Z,0.50
2018-03-25T01:38:37.390Z,0.50
2018-03-25T01:41:04.929Z,0.50
2018-03-25T01:43:33.222Z,0.40
2018-03-25T01:46:00.750Z,0.50
2018-03-25T01:48:28.671Z,0.50
2018-03-25T01:50:56.261Z,0.40
2018-03-25T01:53:24.013Z,0.30
2018-03-25T01:58:47.087Z,0.40
2018-03-25T02:01:18.470Z,0.40
2018-03-25T02:03:46.398Z,0.30
2018-03-25T02:06:14.295Z,0.20
2018-03-25T02:08:42.525Z,0.20
2018-03-25T02:11:09.975Z,0.20
2018-03-25T02:13:37.426Z,0.10
2018-03-25T02:16:04.888Z,0.00
2018-03-25T02:18:32.364Z,0.10
2018-03-25T02:20:59.805Z,0.20
2018-03-25T02:23:27.259Z,0.20
2018-03-25T02:25:55.467Z,0.10
2018-03-25T02:28:23.694Z,0.10
2018-03-25T02:30:51.961Z,0.00
2018-03-25T02:33:19.424Z,0.00
2018-03-25T02:38:54.821Z,0.00
2018-03-25T02:41:22.432Z,-0.10
2018-03-25T02:43:49.904Z,-0.20
2018-03-25T02:49:52.316Z,-0.30
2018-03-25T02:52:20.240Z,-0.30
2018-03-25T02:54:48.089Z,-0.40
2018-03-25T02:57:18.979Z,-0.40
2018-03-25T02:59:46.868Z,-0.40
2018-03-25T03:02:14.755Z,-0.30
2018-03-25T03:04:49.145Z,-0.40
2018-03-25T03:07:17.433Z,2.10
2018-03-25T03:09:50.827Z,-0.30
2018-03-25T03:12:18.352Z,-0.30
2018-03-25T03:14:46.164Z,-0.30
2018-03-25T03:17:13.715Z,-0.30
2018-03-25T03:19:41.206Z,-0.30
2018-03-25T03:22:09.118Z,-0.30
2018-03-25T03:24:38.209Z,-0.30
2018-03-25T03:27:05.873Z,-0.30
2018-03-25T03:29:33.843Z,-0.30
2018-03-25T03:32:18.121Z,-0.30
2018-03-25T03:34:47.831Z,-0.40
2018-03-25T03:37:15.323Z,-0.40
2018-03-25T03:39:43.590Z,-0.40
2018-03-25T03:42:11.871Z,-0.40
2018-03-25T03:44:48.193Z,-0.50
2018-03-25T03:47:16.421Z,-0.60
2018-03-25T03:56:45.795Z,-0.70
2018-03-25T04:02:19.722Z,-0.70
2018-03-25T04:04:53.760Z,-0.80
2018-03-25T04:16:07.927Z,-0.80
2018-03-25T04:18:48.624Z,-0.70
2018-03-25T04:21:16.300Z,-0.80
2018-03-25T04:23:43.781Z,-0.80
2018-03-25T04:26:11.924Z,-0.90
2018-03-25T04:28:40.258Z,-0.90
2018-03-25T04:31:07.795Z,-0.80
2018-03-25T04:33:35.715Z,-0.80
2018-03-25T04:36:04.173Z,-0.90
2018-03-25T04:38:31.844Z,-0.90
2018-03-25T04:40:59.362Z,-1.00
2018-03-25T04:43:27.712Z,-1.00
2018-03-25T04:48:49.280Z,-0.90
2018-03-25T04:51:16.761Z,-0.90
2018-03-25T04:53:44.627Z,-0.90
2018-03-25T04:56:12.560Z,-0.80
2018-03-25T05:01:34.279Z,-0.80
2018-03-25T05:04:02.136Z,-0.80
2018-03-25T05:06:30.404Z,-0.90
2018-03-25T05:08:57.863Z,-0.90
2018-03-25T05:11:25.376Z,-1.00
2018-03-25T05:13:53.610Z,-1.00
2018-03-25T05:19:48.886Z,-1.10
2018-03-25T05:22:17.169Z,-1.10
2018-03-25T05:24:45.456Z,-1.10
2018-03-25T05:27:13.788Z,-1.10
2018-03-25T05:29:48.137Z,-1.10
2018-03-25T05:35:04.890Z,-1.00
2018-03-25T05:37:32.424Z,-0.90
2018-03-25T05:39:59.968Z,-1.00
2018-03-25T05:42:28.188Z,-1.00
2018-03-25T05:44:56.422Z,-1.00
2018-03-25T05:47:23.956Z,-1.00
2018-03-25T05:49:52.478Z,-1.00
2018-03-25T05:52:20.052Z,-1.00
2018-03-25T05:54:48.560Z,-1.00
2018-03-25T06:00:19.769Z,-0.70
2018-03-25T06:05:44.439Z,-0.50
2018-03-25T06:08:11.931Z,-0.40
2018-03-25T06:10:39.413Z,-0.40
2018-03-25T06:13:19.984Z,-0.40
2018-03-25T06:15:47.533Z,-0.40
2018-03-25T06:18:14.941Z,-0.30
2018-03-25T06:20:42.384Z,-0.20
2018-03-25T06:23:09.872Z,0.00
2018-03-25T06:25:46.622Z,0.10
2018-03-25T06:28:17.865Z,0.20
2018-03-25T06:30:45.312Z,0.20
2018-03-25T06:33:13.307Z,0.40
2018-03-25T06:35:47.468Z,0.50
2018-03-25T06:38:18.373Z,0.60
2018-03-25T06:40:45.897Z,0.70
2018-03-25T06:43:13.371Z,0.80
2018-03-25T06:45:40.871Z,0.90
2018-03-25T06:51:11.714Z,1.10
2018-03-25T06:53:53.681Z,1.30
2018-03-25T06:59:14.395Z,1.60
2018-03-25T07:01:41.928Z,1.80
2018-03-25T07:04:09.399Z,1.80
2018-03-25T07:06:37.271Z,2.00
2018-03-25T07:09:05.186Z,2.20
2018-03-25T07:11:32.675Z,2.50
2018-03-25T07:14:00.239Z,2.80
2018-03-25T07:19:37.466Z,3.70
2018-03-25T07:22:05.345Z,4.20
2018-03-25T07:24:34.408Z,4.50
2018-03-25T07:27:01.927Z,4.80
2018-03-25T07:29:29.481Z,4.80
2018-03-25T07:31:57.497Z,4.90
2018-03-25T07:34:25.528Z,4.80
2018-03-25T07:36:53.238Z,4.80
2018-03-25T07:39:20.713Z,4.80
2018-03-25T07:41:48.244Z,4.60
2018-03-25T07:44:15.746Z,4.70
2018-03-25T07:46:43.682Z,5.00
2018-03-25T07:52:13.743Z,6.10
2018-03-25T07:58:05.334Z,8.10
2018-03-25T08:00:33.323Z,8.40
2018-03-25T08:03:01.193Z,8.20
2018-03-25T08:05:28.634Z,8.90
2018-03-25T08:07:57.061Z,9.30
2018-03-25T08:10:24.538Z,10.00
2018-03-25T08:12:52.032Z,9.70
2018-03-25T08:15:19.503Z,9.80
2018-03-25T08:17:47.012Z,10.10
2018-03-25T08:20:14.463Z,10.60
2018-03-25T08:22:42.384Z,10.70
2018-03-25T08:25:09.831Z,10.80
2018-03-25T08:27:37.880Z,11.30
2018-03-25T08:30:05.335Z,11.80
2018-03-25T08:32:32.920Z,11.90
2018-03-25T08:35:00.840Z,12.40
2018-03-25T08:37:29.129Z,12.10
2018-03-25T08:39:57.376Z,11.70
2018-03-25T08:45:07.819Z,12.50
2018-03-25T08:50:28.937Z,14.30
2018-03-25T08:52:56.857Z,14.40
2018-03-25T08:55:47.452Z,14.30
2018-03-25T08:58:15.059Z,14.70
2018-03-25T09:00:48.962Z,14.50
2018-03-25T09:06:19.394Z,15.20
2018-03-25T09:14:44.473Z,13.20
2018-03-25T09:19:43.794Z,13.20
2018-03-25T09:22:18.281Z,12.10
2018-03-25T09:30:41.783Z,11.00
2018-03-25T09:33:09.276Z,11.00
2018-03-25T09:35:36.824Z,11.40
2018-03-25T09:38:04.680Z,12.30
2018-03-25T09:40:47.864Z,13.00
2018-03-25T09:43:15.466Z,13.60
2018-03-25T09:45:43.398Z,13.50
2018-03-25T09:48:12.985Z,13.60
2018-03-25T09:50:40.977Z,13.60
2018-03-25T09:59:05.436Z,15.60
2018-03-25T10:01:35.136Z,15.10
2018-03-25T10:04:02.684Z,15.00
2018-03-25T10:06:30.229Z,14.40
2018-03-25T10:08:57.837Z,14.20
2018-03-25T10:11:35.417Z,15.70
2018-03-25T10:14:03.288Z,17.00
2018-03-25T10:16:31.953Z,17.70
2018-03-25T10:21:52.769Z,18.00
2018-03-25T10:24:21.159Z,16.70
2018-03-25T10:27:17.150Z,17.30
2018-03-25T10:29:45.146Z,17.60
2018-03-25T10:35:16.825Z,18.40
2018-03-25T10:37:48.445Z,18.60
2018-03-25T10:40:18.277Z,18.70
2018-03-25T10:42:47.933Z,18.70
2018-03-25T10:45:15.419Z,18.10
2018-03-25T10:50:46.678Z,18.00
2018-03-25T10:53:14.172Z,18.50
2018-03-25T10:58:48.239Z,18.00
2018-03-25T11:04:18.557Z,19.60
2018-03-25T11:06:52.972Z,19.20
2018-03-25T11:09:38.770Z,19.50
2018-03-25T11:12:06.266Z,19.90
2018-03-25T11:14:33.873Z,19.80
2018-03-25T11:17:01.327Z,19.80
2018-03-25T11:22:35.185Z,19.70
2018-03-25T11:25:02.711Z,18.70
2018-03-25T11:27:30.175Z,18.10
2018-03-25T11:29:57.639Z,18.70
2018-03-25T11:32:26.185Z,18.90
2018-03-25T11:34:53.714Z,19.60
2018-03-25T11:40:31.939Z,20.60
2018-03-25T11:42:59.432Z,19.80
2018-03-25T11:45:26.911Z,19.60
2018-03-25T11:47:54.393Z,18.40
2018-03-25T11:50:21.863Z,20.10
2018-03-25T11:52:49.334Z,21.20
2018-03-25T11:55:17.562Z,21.00
2018-03-25T11:57:45.416Z,20.70
2018-03-25T12:00:13.622Z,19.60
2018-03-25T12:02:41.490Z,18.70
2018-03-25T12:05:09.724Z,20.10
2018-03-25T12:07:37.944Z,19.70
2018-03-25T12:10:05.392Z,18.50
2018-03-25T12:12:33.607Z,18.70
2018-03-25T12:15:01.450Z,20.40
2018-03-25T12:17:29.711Z,19.10
2018-03-25T12:19:57.550Z,19.80
2018-03-25T12:22:25.811Z,20.40
2018-03-25T12:24:54.060Z,18.60
2018-03-25T12:27:21.939Z,20.10
2018-03-25T12:29:49.798Z,20.10
2018-03-25T12:32:17.663Z,21.10
2018-03-25T12:34:45.891Z,20.80
2018-03-25T12:37:13.739Z,22.10
2018-03-25T12:39:41.592Z,22.20
2018-03-25T12:42:09.831Z,21.20
2018-03-25T12:44:37.696Z,21.70
2018-03-25T12:47:05.987Z,22.40
2018-03-25T12:49:33.867Z,21.50
2018-03-25T12:52:01.717Z,21.20
2018-03-25T12:54:29.927Z,19.50
2018-03-25T12:56:57.787Z,19.70
2018-03-25T12:59:26.060Z,20.70
2018-03-25T13:01:53.926Z,21.30
2018-03-25T13:04:21.819Z,21.70
2018-03-25T13:06:50.052Z,22.10
2018-03-25T13:09:17.923Z,20.00
2018-03-25T13:11:45.834Z,21.00
2018-03-25T13:14:14.053Z,19.70
2018-03-25T13:16:41.922Z,20.40
2018-03-25T13:19:09.368Z,19.50
2018-03-25T13:21:37.252Z,17.90
2018-03-25T13:24:04.736Z,18.00
2018-03-25T13:26:32.591Z,19.20
2018-03-25T13:29:00.050Z,20.00
2018-03-25T13:31:27.538Z,20.30
2018-03-25T13:33:55.389Z,20.30
2018-03-25T13:36:22.867Z,20.60
2018-03-25T13:38:50.346Z,19.30
2018-03-25T13:41:18.193Z,20.10
2018-03-25T13:43:46.068Z,20.50
2018-03-25T13:46:13.963Z,21.10
2018-03-25T13:48:42.180Z,21.40
2018-03-25T13:51:10.409Z,20.90
2018-03-25T13:53:38.249Z,20.60
2018-03-25T13:56:06.095Z,20.80
2018-03-25T13:58:34.300Z,20.50
2018-03-25T14:01:02.165Z,20.00
2018-03-25T14:03:30.030Z,20.70
2018-03-25T14:05:58.281Z,20.80
2018-03-25T14:08:26.505Z,20.30
2018-03-25T14:10:54.371Z,19.80
2018-03-25T14:13:22.230Z,19.50
2018-03-25T14:15:50.121Z,18.80
2018-03-25T14:18:18.353Z,18.60
2018-03-25T14:20:45.851Z,19.20
2018-03-25T14:23:14.052Z,19.40
2018-03-25T14:25:42.275Z,19.40
2018-03-25T14:28:10.125Z,19.20
2018-03-25T14:30:38.351Z,18.90
2018-03-25T14:33:06.215Z,19.90
2018-03-25T14:35:34.447Z,18.90
2018-03-25T14:38:02.314Z,18.20
2018-03-25T14:40:30.544Z,18.80
2018-03-25T14:42:58.403Z,18.90
2018-03-25T14:45:26.640Z,19.20
2018-03-25T14:47:54.551Z,19.30
2018-03-25T14:50:22.409Z,20.00
2018-03-25T14:52:50.271Z,19.50
2018-03-25T14:55:18.560Z,19.10
2018-03-25T14:57:46.784Z,19.30
2018-03-25T15:00:14.247Z,17.70
2018-03-25T15:02:41.748Z,17.60
2018-03-25T15:05:09.203Z,18.00
2018-03-25T15:07:36.715Z,18.60
2018-03-25T15:10:04.192Z,18.60
2018-03-25T15:12:31.653Z,18.00
2018-03-25T15:14:59.106Z,17.80
2018-03-25T15:17:26.585Z,18.20
2018-03-25T15:19:54.090Z,18.40
2018-03-25T15:22:21.544Z,18.40
2018-03-25T15:24:49.007Z,18.50
2018-03-25T15:27:16.987Z,19.30
2018-03-25T15:29:44.819Z,19.30
2018-03-25T15:32:12.304Z,18.40
2018-03-25T15:34:39.797Z,18.20
2018-03-25T15:37:07.294Z,17.70
2018-03-25T15:39:34.752Z,17.40
2018-03-25T15:42:02.225Z,17.50
2018-03-25T15:44:29.692Z,17.70
2018-03-25T15:46:57.155Z,17.20
2018-03-25T15:49:24.716Z,17.00
2018-03-25T15:51:52.168Z,16.70
2018-03-25T15:54:19.634Z,16.30
2018-03-25T15:56:47.502Z,15.90
2018-03-25T15:59:14.981Z,15.10
2018-03-25T16:01:42.835Z,14.40
2018-03-25T16:04:10.297Z,14.10
2018-03-25T16:06:37.759Z,14.00
2018-03-25T16:09:05.624Z,14.00
2018-03-25T16:11:33.088Z,13.90
2018-03-25T16:14:01.319Z,13.90
2018-03-25T16:16:29.480Z,14.00
2018-03-25T16:18:57.424Z,14.00
2018-03-25T16:21:24.908Z,13.80
2018-03-25T16:23:52.797Z,13.90
2018-03-25T16:26:21.228Z,13.70
2018-03-25T16:28:49.473Z,13.70
2018-03-25T16:31:18.758Z,13.80
2018-03-25T16:33:47.024Z,13.80
2018-03-25T16:36:15.418Z,13.60
2018-03-25T16:38:42.869Z,13.50
2018-03-25T16:41:10.460Z,13.30
2018-03-25T16:43:37.912Z,13.30
2018-03-25T16:46:06.134Z,13.20
2018-03-25T16:48:33.595Z,13.10
2018-03-25T16:51:01.119Z,13.10
2018-03-25T16:53:28.575Z,13.10
2018-03-25T16:55:56.075Z,13.10
2018-03-25T16:58:24.743Z,13.10
2018-03-25T17:00:52.239Z,13.00
2018-03-25T17:03:19.691Z,13.00
2018-03-25T17:05:47.149Z,12.90
2018-03-25T17:08:14.643Z,12.90
2018-03-25T17:10:42.147Z,12.80
2018-03-25T17:13:09.612Z,12.80
2018-03-25T17:15:37.972Z,12.70
2018-03-25T17:18:05.441Z,12.70
2018-03-25T17:20:33.680Z,12.70
2018-03-25T17:23:01.892Z,12.70
2018-03-25T17:25:29.383Z,12.70
2018-03-25T17:27:56.885Z,12.60
2018-03-25T17:30:24.363Z,12.60
2018-03-25T17:32:51.831Z,12.50
2018-03-25T17:35:19.701Z,12.50
2018-03-25T17:37:47.152Z,12.40
2018-03-25T17:40:14.627Z,12.40
2018-03-25T17:42:42.090Z,12.30
2018-03-25T17:45:10.376Z,12.30
2018-03-25T17:47:37.930Z,12.20
2018-03-25T17:50:05.470Z,12.20
2018-03-25T17:52:33.692Z,12.20
2018-03-25T17:55:01.172Z,12.20
2018-03-25T17:57:29.769Z,12.10
2018-03-25T17:59:57.236Z,12.10
2018-03-25T18:02:24.704Z,12.10
2018-03-25T18:04:52.252Z,12.10
2018-03-25T18:07:20.349Z,12.00
2018-03-25T18:09:47.789Z,12.00
2018-03-25T18:12:15.750Z,12.00
2018-03-25T18:14:48.332Z,12.00
2018-03-25T18:17:33.463Z,11.90
2018-03-25T18:19:47.785Z,11.90
2018-03-25T18:22:18.020Z,11.70
2018-03-25T18:24:45.833Z,11.70
2018-03-25T18:27:14.387Z,11.70
2018-03-25T18:29:42.949Z,11.60
2018-03-25T18:32:12.554Z,15.00
2018-03-25T18:34:40.859Z,11.50
2018-03-25T18:37:08.737Z,11.50
2018-03-25T18:39:36.538Z,11.50
2018-03-25T18:42:04.172Z,11.50
2018-03-25T18:44:31.653Z,11.40
2018-03-25T18:46:59.517Z,11.40
2018-03-25T18:49:27.332Z,11.40
2018-03-25T18:51:56.409Z,11.40
2018-03-25T18:54:23.901Z,11.40
2018-03-25T18:56:51.453Z,11.30
2018-03-25T19:01:51.457Z,11.20
2018-03-25T19:04:19.706Z,11.20
2018-03-25T19:06:47.961Z,11.20
2018-03-25T19:09:15.919Z,11.20
2018-03-25T19:11:43.424Z,11.20
2018-03-25T19:14:11.037Z,11.10
2018-03-25T19:16:38.672Z,11.10
2018-03-25T19:19:06.459Z,11.10
2018-03-25T19:21:33.987Z,11.10
2018-03-25T19:24:01.498Z,11.10
2018-03-25T19:26:29.742Z,11.10
2018-03-25T19:28:57.632Z,11.10
2018-03-25T19:31:25.758Z,11.00
2018-03-25T19:33:54.641Z,11.00
2018-03-25T19:36:23.082Z,11.00
2018-03-25T19:38:51.298Z,10.90
2018-03-25T19:41:18.786Z,10.90
2018-03-25T19:43:46.730Z,10.80
2018-03-25T19:46:14.208Z,10.80
2018-03-25T19:48:42.104Z,10.80
2018-03-25T19:51:09.613Z,10.80
2018-03-25T19:53:37.839Z,10.80
2018-03-25T19:56:05.759Z,10.80
2018-03-25T19:58:33.616Z,10.80
2018-03-25T20:01:01.850Z,10.70
2018-03-25T20:03:29.704Z,10.70
2018-03-25T20:05:58.034Z,10.70
2018-03-25T20:08:32.572Z,10.70
2018-03-25T20:11:02.999Z,10.70
2018-03-25T20:13:48.012Z,10.70
2018-03-25T20:16:15.478Z,10.60
2018-03-25T20:18:49.800Z,10.60
2018-03-25T20:24:17.988Z,10.60
2018-03-25T20:26:47.590Z,10.50
2018-03-25T20:29:15.515Z,10.50
2018-03-25T20:31:43.259Z,10.50
2018-03-25T20:34:11.585Z,10.50
2018-03-25T20:36:40.165Z,10.50
2018-03-25T20:39:07.745Z,10.40
2018-03-25T20:41:35.273Z,10.40
2018-03-25T20:44:02.729Z,10.40
2018-03-25T20:46:30.214Z,10.40
2018-03-25T20:49:16.263Z,10.40
2018-03-25T20:51:43.728Z,10.30
2018-03-25T20:54:11.184Z,10.30
2018-03-25T20:56:38.666Z,10.20
2018-03-25T20:59:06.250Z,10.20
2018-03-25T21:01:46.277Z,10.20
2018-03-25T21:04:14.137Z,10.00
2018-03-25T21:06:42.473Z,10.10
2018-03-25T21:09:09.964Z,9.90
2018-03-25T21:11:38.199Z,9.80
2018-03-25T21:17:14.050Z,9.50
2018-03-25T21:19:41.909Z,9.40
2018-03-25T21:22:10.335Z,9.40
2018-03-25T21:24:38.218Z,9.30
2018-03-25T21:27:06.087Z,9.30
2018-03-25T21:29:34.335Z,9.30
2018-03-25T21:32:02.323Z,9.30
2018-03-25T21:34:30.232Z,9.30
2018-03-25T21:36:58.134Z,9.30
2018-03-25T21:39:26.344Z,9.40
2018-03-25T21:41:55.267Z,9.40
2018-03-25T21:44:22.791Z,9.40
2018-03-25T21:46:50.657Z,9.50
2018-03-25T21:49:18.871Z,9.50
2018-03-25T21:51:46.590Z,9.50
2018-03-25T21:54:14.185Z,9.60
2018-03-25T21:56:41.650Z,9.60
2018-03-25T21:59:09.130Z,9.60
2018-03-25T22:01:36.651Z,9.60
2018-03-25T22:04:04.868Z,9.50
2018-03-25T22:06:32.396Z,9.60
2018-03-25T22:09:02.162Z,9.60
2018-03-25T22:11:29.649Z,9.50
2018-03-25T22:13:57.504Z,9.50
2018-03-25T22:16:24.969Z,9.50
2018-03-25T22:18:59.240Z,9.50
2018-03-25T22:24:15.713Z,9.40
2018-03-25T22:29:48.010Z,9.40
2018-03-25T22:32:16.923Z,9.40
2018-03-25T22:34:48.212Z,9.40
2018-03-25T22:37:17.091Z,9.40
2018-03-25T22:39:47.484Z,9.40
2018-03-25T22:42:15.954Z,9.40
2018-03-25T22:44:46.368Z,9.40
2018-03-25T22:47:13.851Z,9.40
2018-03-25T22:49:41.704Z,9.30
2018-03-25T22:52:09.980Z,9.20
2018-03-25T22:54:38.247Z,9.20
2018-03-25T22:57:05.800Z,9.20
2018-03-25T22:59:33.196Z,9.10
2018-03-25T23:02:01.048Z,9.10
2018-03-25T23:04:29.311Z,9.10
2018-03-25T23:06:57.611Z,9.10
2018-03-25T23:09:25.860Z,9.10
2018-03-25T23:11:54.076Z,9.00
2018-03-25T23:14:21.936Z,8.90
2018-03-25T23:16:49.491Z,8.90
2018-03-25T23:19:17.013Z,8.80
2018-03-25T23:21:45.441Z,8.90
2018-03-25T23:24:13.008Z,8.80
2018-03-25T23:26:41.248Z,8.80
2018-03-25T23:29:08.880Z,8.80
2018-03-25T23:31:36.865Z,8.70
2018-03-25T23:34:04.346Z,8.70
2018-03-25T23:36:32.880Z,8.70
2018-03-25T23:39:01.495Z,8.70
2018-03-25T23:41:31.814Z,8.70
2018-03-25T23:43:59.900Z,8.70
2018-03-25T23:46:27.368Z,8.70
2018-03-25T23:48:55.736Z,8.70
2018-03-25T23:51:23.296Z,8.60
2018-03-25T23:53:50.792Z,8.60
2018-03-25T23:56:18.685Z,8.60
2018-03-25T23:58:46.147Z,8.60
